createdAt,value
2023-03-23T00:00:56.798Z,0.00
2023-03-23T00:01:56.721Z,0.00
2023-03-23T00:02:56.742Z,0.00
2023-03-23T00:03:56.728Z,0.00
2023-03-23T00:04:56.695Z,0.00
2023-03-23T00:05:56.720Z,0.00
2023-03-23T00:06:56.676Z,0.00
2023-03-23T00:07:56.661Z,0.00
2023-03-23T00:08:58.339Z,0.00
2023-03-23T00:09:56.658Z,0.00
2023-03-23T00:10:56.654Z,0.00
2023-03-23T00:11:56.628Z,0.00
2023-03-23T00:12:56.619Z,0.00
2023-03-23T00:13:56.617Z,0.00
2023-03-23T00:14:56.597Z,0.00
2023-03-23T00:15:56.604Z,0.00
2023-03-23T00:16:56.666Z,0.00
2023-03-23T00:17:56.565Z,0.00
2023-03-23T00:18:56.572Z,0.00
2023-03-23T00:19:56.546Z,0.00
2023-03-23T00:20:56.742Z,0.00
2023-03-23T00:21:56.531Z,0.00
2023-03-23T00:22:56.523Z,0.00
2023-03-23T00:23:56.512Z,0.00
2023-03-23T00:24:56.547Z,0.00
2023-03-23T00:25:56.478Z,0.00
2023-03-23T00:26:56.483Z,0.00
2023-03-23T00:27:56.460Z,0.00
2023-03-23T00:28:56.488Z,0.00
2023-03-23T00:29:56.707Z,0.00
2023-03-23T00:30:56.444Z,0.00
2023-03-23T00:31:56.413Z,0.00
2023-03-23T00:32:56.468Z,0.00
2023-03-23T00:33:56.430Z,0.00
2023-03-23T00:34:56.430Z,0.00
2023-03-23T00:35:56.451Z,0.00
2023-03-23T00:36:56.381Z,0.00
2023-03-23T00:37:56.396Z,0.00
2023-03-23T00:38:56.361Z,0.00
2023-03-23T00:39:56.325Z,0.00
2023-03-23T00:40:56.332Z,0.00
2023-03-23T00:41:56.312Z,0.00
2023-03-23T00:42:56.324Z,0.00
2023-03-23T00:43:56.286Z,0.00
2023-03-23T00:44:56.277Z,0.00
2023-03-23T00:45:56.306Z,0.00
2023-03-23T00:46:56.280Z,0.00
2023-03-23T00:47:56.301Z,0.00
2023-03-23T00:48:56.313Z,0.00
2023-03-23T00:49:56.275Z,0.00
2023-03-23T00:50:56.894Z,0.00
2023-03-23T00:51:56.227Z,0.00
2023-03-23T00:52:56.232Z,0.00
2023-03-23T00:53:56.253Z,0.00
2023-03-23T00:54:56.177Z,0.00
2023-03-23T00:55:56.164Z,0.00
2023-03-23T00:56:56.183Z,0.00
2023-03-23T00:57:56.162Z,0.00
2023-03-23T00:58:56.190Z,0.00
2023-03-23T00:59:56.126Z,0.00
2023-03-23T01:00:56.135Z,0.00
2023-03-23T01:01:56.103Z,0.00
2023-03-23T01:02:56.096Z,0.00
2023-03-23T01:03:56.118Z,0.00
2023-03-23T01:04:56.114Z,0.00
2023-03-23T01:05:56.127Z,0.00
2023-03-23T01:06:56.093Z,0.00
2023-03-23T01:07:56.097Z,0.00
2023-03-23T01:08:56.069Z,0.00
2023-03-23T01:09:56.010Z,0.00
2023-03-23T01:10:56.022Z,0.00
2023-03-23T01:11:56.050Z,0.00
2023-03-23T01:12:56.022Z,0.00
2023-03-23T01:13:56.037Z,0.00
2023-03-23T01:14:55.963Z,0.00
2023-03-23T01:15:56.002Z,0.00
2023-03-23T01:16:55.976Z,0.00
2023-03-23T01:17:55.955Z,0.00
2023-03-23T01:18:55.976Z,0.00
2023-03-23T01:19:55.999Z,0.00
2023-03-23T01:20:55.911Z,0.00
2023-03-23T01:21:55.933Z,0.00
2023-03-23T01:22:55.941Z,0.00
2023-03-23T01:23:55.880Z,0.00
2023-03-23T01:24:55.902Z,0.00
2023-03-23T01:25:55.938Z,0.00
2023-03-23T01:26:55.848Z,0.00
2023-03-23T01:27:55.843Z,0.00
2023-03-23T01:28:55.831Z,0.00
2023-03-23T01:29:55.840Z,0.00
2023-03-23T01:30:55.847Z,0.00
2023-03-23T01:31:55.796Z,0.00
2023-03-23T01:32:55.805Z,0.00
2023-03-23T01:33:55.809Z,0.00
2023-03-23T01:34:55.766Z,0.00
2023-03-23T01:35:55.814Z,0.00
2023-03-23T01:36:55.783Z,0.00
2023-03-23T01:37:55.778Z,0.00
2023-03-23T01:38:55.771Z,0.00
2023-03-23T01:39:55.884Z,0.00
2023-03-23T01:40:55.739Z,0.00
2023-03-23T01:41:55.720Z,0.00
2023-03-23T01:42:55.719Z,0.00
2023-03-23T01:43:55.760Z,0.00
2023-03-23T01:44:55.673Z,0.00
2023-03-23T01:45:55.652Z,0.00
2023-03-23T01:46:56.500Z,0.00
2023-03-23T01:47:55.693Z,0.00
2023-03-23T01:48:55.676Z,0.00
2023-03-23T01:49:55.622Z,0.00
2023-03-23T01:50:55.648Z,0.00
2023-03-23T01:51:55.601Z,0.00
2023-03-23T01:52:55.613Z,0.00
2023-03-23T01:53:55.594Z,0.00
2023-03-23T01:54:55.597Z,0.00
2023-03-23T01:55:55.564Z,0.00
2023-03-23T01:56:55.617Z,0.00
2023-03-23T01:57:55.647Z,0.00
2023-03-23T01:58:55.570Z,0.00
2023-03-23T01:59:55.510Z,0.00
2023-03-23T02:00:55.512Z,0.00
2023-03-23T02:01:55.518Z,0.00
2023-03-23T02:02:56.581Z,0.00
2023-03-23T02:03:55.480Z,0.00
2023-03-23T02:04:55.478Z,0.00
2023-03-23T02:05:55.475Z,0.00
2023-03-23T02:06:55.467Z,0.00
2023-03-23T02:07:55.478Z,0.00
2023-03-23T02:08:55.447Z,0.00
2023-03-23T02:09:55.447Z,0.00
2023-03-23T02:10:55.427Z,0.00
2023-03-23T02:11:55.417Z,0.00
2023-03-23T02:12:55.455Z,0.00
2023-03-23T02:13:55.402Z,0.00
2023-03-23T02:14:55.366Z,0.00
2023-03-23T02:15:55.480Z,0.00
2023-03-23T02:16:55.370Z,0.00
2023-03-23T02:17:55.373Z,0.00
2023-03-23T02:18:55.352Z,0.00
2023-03-23T02:19:55.315Z,0.00
2023-03-23T02:20:55.316Z,0.00
2023-03-23T02:21:55.314Z,0.00
2023-03-23T02:22:55.313Z,0.00
2023-03-23T02:23:55.306Z,0.00
2023-03-23T02:24:55.286Z,0.00
2023-03-23T02:25:55.360Z,0.00
2023-03-23T02:26:55.242Z,0.00
2023-03-23T02:27:55.244Z,0.00
2023-03-23T02:28:55.256Z,0.00
2023-03-23T02:29:55.223Z,0.00
2023-03-23T02:30:55.242Z,0.00
2023-03-23T02:31:55.213Z,0.00
2023-03-23T02:32:55.178Z,0.00
2023-03-23T02:33:55.195Z,0.00
2023-03-23T02:34:55.185Z,0.00
2023-03-23T02:35:55.227Z,0.00
2023-03-23T02:36:55.164Z,0.00
2023-03-23T02:37:55.131Z,0.00
2023-03-23T02:38:55.179Z,0.00
2023-03-23T02:39:55.163Z,0.00
2023-03-23T02:40:55.093Z,0.00
2023-03-23T02:41:55.114Z,0.00
2023-03-23T02:42:55.104Z,0.00
2023-03-23T02:43:55.094Z,0.00
2023-03-23T02:44:55.064Z,0.00
2023-03-23T02:45:55.057Z,0.00
2023-03-23T02:46:55.048Z,0.00
2023-03-23T02:47:55.027Z,0.00
2023-03-23T02:48:55.041Z,0.00
2023-03-23T02:49:55.040Z,0.00
2023-03-23T02:50:55.038Z,0.00
2023-03-23T02:51:55.054Z,0.00
2023-03-23T02:52:55.003Z,0.00
2023-03-23T02:53:55.002Z,0.00
2023-03-23T02:54:54.971Z,0.00
2023-03-23T02:55:54.955Z,0.00
2023-03-23T02:56:55.029Z,0.00
2023-03-23T02:57:54.951Z,0.00
2023-03-23T02:58:54.930Z,0.00
2023-03-23T02:59:54.941Z,0.00
2023-03-23T03:00:54.905Z,0.00
2023-03-23T03:01:54.921Z,0.00
2023-03-23T03:02:54.879Z,0.00
2023-03-23T03:03:54.890Z,0.00
2023-03-23T03:04:54.872Z,0.00
2023-03-23T03:05:54.924Z,0.00
2023-03-23T03:06:54.859Z,0.00
2023-03-23T03:07:54.848Z,0.00
2023-03-23T03:08:54.856Z,0.00
2023-03-23T03:09:55.040Z,0.00
2023-03-23T03:10:54.787Z,0.00
2023-03-23T03:11:54.825Z,0.00
2023-03-23T03:12:54.822Z,0.00
2023-03-23T03:13:54.789Z,0.00
2023-03-23T03:14:54.746Z,0.00
2023-03-23T03:15:54.789Z,0.00
2023-03-23T03:16:54.848Z,0.00
2023-03-23T03:17:54.789Z,0.00
2023-03-23T03:18:54.726Z,0.00
2023-03-23T03:19:54.717Z,0.00
2023-03-23T03:20:54.720Z,0.00
2023-03-23T03:21:54.678Z,0.00
2023-03-23T03:22:54.682Z,0.00
2023-03-23T03:23:54.748Z,0.00
2023-03-23T03:24:54.644Z,0.00
2023-03-23T03:25:54.662Z,0.00
2023-03-23T03:26:54.667Z,0.00
2023-03-23T03:27:54.624Z,0.00
2023-03-23T03:28:54.637Z,0.00
2023-03-23T03:29:54.625Z,0.00
2023-03-23T03:30:54.618Z,0.00
2023-03-23T03:31:54.596Z,0.00
2023-03-23T03:32:54.833Z,0.00
2023-03-23T03:33:55.062Z,0.00
2023-03-23T03:34:54.577Z,0.00
2023-03-23T03:35:54.584Z,0.00
2023-03-23T03:36:54.526Z,0.00
2023-03-23T03:37:54.532Z,0.00
2023-03-23T03:38:54.599Z,0.00
2023-03-23T03:39:54.500Z,0.00
2023-03-23T03:40:54.506Z,0.00
2023-03-23T03:41:54.514Z,0.00
2023-03-23T03:42:54.473Z,0.00
2023-03-23T03:43:54.476Z,0.00
2023-03-23T03:44:54.446Z,0.00
2023-03-23T03:45:54.429Z,0.00
2023-03-23T03:46:54.483Z,0.00
2023-03-23T03:47:54.412Z,0.00
2023-03-23T03:48:54.404Z,0.00
2023-03-23T03:49:54.411Z,0.00
2023-03-23T03:50:54.432Z,0.00
2023-03-23T03:51:54.369Z,0.00
2023-03-23T03:52:54.389Z,0.00
2023-03-23T03:53:54.345Z,0.00
2023-03-23T03:54:54.360Z,0.00
2023-03-23T03:55:54.359Z,0.00
2023-03-23T03:56:54.316Z,0.00
2023-03-23T03:57:54.320Z,0.00
2023-03-23T03:58:54.289Z,0.00
2023-03-23T03:59:54.365Z,0.00
2023-03-23T04:00:54.316Z,0.00
2023-03-23T04:01:54.300Z,0.00
2023-03-23T04:02:54.249Z,0.00
2023-03-23T04:03:54.263Z,0.00
2023-03-23T04:04:54.227Z,0.00
2023-03-23T04:05:58.491Z,0.00
2023-03-23T04:06:54.210Z,0.00
2023-03-23T04:07:54.218Z,0.00
2023-03-23T04:08:54.198Z,0.00
2023-03-23T04:09:54.200Z,0.00
2023-03-23T04:10:54.251Z,0.00
2023-03-23T04:11:54.206Z,0.00
2023-03-23T04:12:54.176Z,0.00
2023-03-23T04:13:54.158Z,0.00
2023-03-23T04:14:54.241Z,0.00
2023-03-23T04:16:10.137Z,0.00
2023-03-23T04:16:54.609Z,0.00
2023-03-23T04:17:54.117Z,0.00
2023-03-23T04:18:54.103Z,0.00
2023-03-23T04:19:54.148Z,0.00
2023-03-23T04:20:54.152Z,0.00
2023-03-23T04:21:54.106Z,0.00
2023-03-23T04:22:54.040Z,0.00
2023-03-23T04:23:54.049Z,0.00
2023-03-23T04:24:56.028Z,0.00
2023-03-23T04:25:54.065Z,0.00
2023-03-23T04:26:54.015Z,0.00
2023-03-23T04:27:53.989Z,0.00
2023-03-23T04:28:54.000Z,0.00
2023-03-23T04:29:54.001Z,0.00
2023-03-23T04:30:53.987Z,0.00
2023-03-23T04:31:53.977Z,0.00
2023-03-23T04:32:54.070Z,0.00
2023-03-23T04:33:58.625Z,0.00
2023-03-23T04:34:53.925Z,0.00
2023-03-23T04:35:53.980Z,0.00
2023-03-23T04:36:57.079Z,0.00
2023-03-23T04:37:54.059Z,0.00
2023-03-23T04:38:53.890Z,0.00
2023-03-23T04:39:53.892Z,0.00
2023-03-23T04:40:53.853Z,0.00
2023-03-23T04:41:53.853Z,0.00
2023-03-23T04:42:53.927Z,0.00
2023-03-23T04:43:53.835Z,0.00
2023-03-23T04:44:53.827Z,0.00
2023-03-23T04:45:53.885Z,0.00
2023-03-23T04:46:53.814Z,0.00
2023-03-23T04:47:53.804Z,0.00
2023-03-23T04:48:53.821Z,0.00
2023-03-23T04:49:53.788Z,0.00
2023-03-23T04:50:55.793Z,0.00
2023-03-23T04:51:53.827Z,0.00
2023-03-23T04:52:53.729Z,0.00
2023-03-23T04:53:53.747Z,0.00
2023-03-23T04:54:53.743Z,0.00
2023-03-23T04:55:53.772Z,0.00
2023-03-23T04:56:53.715Z,0.00
2023-03-23T04:57:53.702Z,0.00
2023-03-23T04:58:53.669Z,0.00
2023-03-23T04:59:53.696Z,0.00
2023-03-23T05:00:53.677Z,0.00
2023-03-23T05:01:53.595Z,1.00
2023-03-23T05:02:53.622Z,0.00
2023-03-23T05:03:53.664Z,0.00
2023-03-23T05:04:53.667Z,0.00
2023-03-23T05:05:53.689Z,1.00
2023-03-23T05:06:53.537Z,1.00
2023-03-23T05:07:58.166Z,1.00
2023-03-23T05:08:53.622Z,2.00
2023-03-23T05:09:53.538Z,2.00
2023-03-23T05:10:53.519Z,2.00
2023-03-23T05:11:53.511Z,3.00
2023-03-23T05:12:53.475Z,3.00
2023-03-23T05:13:53.492Z,4.00
2023-03-23T05:14:53.698Z,2.00
2023-03-23T05:15:53.450Z,4.00
2023-03-23T05:16:53.501Z,4.00
2023-03-23T05:17:53.416Z,3.00
2023-03-23T05:18:53.417Z,3.00
2023-03-23T05:19:53.429Z,5.00
2023-03-23T05:20:53.578Z,10.00
2023-03-23T05:21:53.383Z,10.00
2023-03-23T05:22:53.406Z,10.00
2023-03-23T05:23:53.351Z,10.00
2023-03-23T05:24:53.408Z,11.00
2023-03-23T05:25:53.357Z,11.00
2023-03-23T05:26:53.339Z,14.00
2023-03-23T05:27:53.310Z,14.00
2023-03-23T05:28:53.342Z,14.00
2023-03-23T05:29:53.371Z,12.00
2023-03-23T05:30:53.299Z,12.00
2023-03-23T05:31:53.300Z,13.00
2023-03-23T05:32:53.257Z,13.00
2023-03-23T05:33:53.249Z,18.00
2023-03-23T05:34:53.270Z,16.00
2023-03-23T05:35:53.279Z,18.00
2023-03-23T05:36:53.265Z,20.00
2023-03-23T05:37:53.516Z,22.00
2023-03-23T05:38:53.342Z,27.00
2023-03-23T05:39:53.261Z,36.00
2023-03-23T05:40:53.180Z,40.00
2023-03-23T05:41:53.161Z,39.00
2023-03-23T05:42:53.259Z,38.00
2023-03-23T05:43:53.676Z,43.00
2023-03-23T05:44:53.189Z,45.00
2023-03-23T05:45:53.138Z,47.00
2023-03-23T05:46:53.170Z,50.00
2023-03-23T05:47:53.218Z,51.00
2023-03-23T05:48:53.209Z,49.00
2023-03-23T05:49:53.094Z,47.00
2023-03-23T05:50:53.068Z,48.00
2023-03-23T05:51:53.116Z,57.00
2023-03-23T05:52:53.337Z,52.00
2023-03-23T05:53:53.060Z,52.00
2023-03-23T05:54:53.026Z,51.00
2023-03-23T05:55:53.098Z,49.00
2023-03-23T05:56:53.031Z,49.00
2023-03-23T05:57:53.029Z,53.00
2023-03-23T05:58:53.003Z,55.00
2023-03-23T05:59:52.984Z,58.00
2023-03-23T06:00:53.121Z,62.00
2023-03-23T06:01:52.989Z,72.00
2023-03-23T06:02:52.962Z,91.00
2023-03-23T06:03:52.991Z,89.00
2023-03-23T06:04:52.969Z,89.00
2023-03-23T06:05:52.943Z,84.00
2023-03-23T06:06:52.925Z,80.00
2023-03-23T06:07:52.897Z,73.00
2023-03-23T06:08:52.907Z,72.00
2023-03-23T06:09:52.900Z,65.00
2023-03-23T06:10:52.868Z,61.00
2023-03-23T06:11:52.952Z,65.00
2023-03-23T06:12:53.276Z,68.00
2023-03-23T06:13:52.844Z,69.00
2023-03-23T06:14:52.873Z,78.00
2023-03-23T06:15:52.991Z,92.00
2023-03-23T06:16:52.865Z,116.00
2023-03-23T06:17:52.808Z,126.00
2023-03-23T06:18:52.853Z,131.00
2023-03-23T06:19:52.848Z,161.00
2023-03-23T06:20:53.237Z,195.00
2023-03-23T06:21:52.774Z,225.00
2023-03-23T06:22:52.779Z,207.00
2023-03-23T06:23:53.022Z,179.00
2023-03-23T06:24:52.756Z,166.00
2023-03-23T06:25:52.740Z,152.00
2023-03-23T06:26:52.711Z,151.00
2023-03-23T06:27:52.794Z,147.00
2023-03-23T06:28:52.667Z,153.00
2023-03-23T06:29:53.678Z,143.00
2023-03-23T06:30:52.733Z,159.00
2023-03-23T06:31:52.921Z,234.00
2023-03-23T06:32:52.785Z,296.00
2023-03-23T06:33:52.682Z,359.00
2023-03-23T06:34:52.677Z,330.00
2023-03-23T06:35:52.810Z,327.00
2023-03-23T06:36:52.604Z,309.00
2023-03-23T06:37:52.638Z,358.00
2023-03-23T06:38:52.621Z,395.00
2023-03-23T06:39:52.570Z,312.00
2023-03-23T06:40:52.816Z,261.00
2023-03-23T06:41:52.657Z,202.00
2023-03-23T06:42:52.600Z,206.00
2023-03-23T06:43:52.734Z,254.00
2023-03-23T06:44:52.521Z,271.00
2023-03-23T06:45:52.524Z,273.00
2023-03-23T06:46:52.519Z,246.00
2023-03-23T06:47:52.526Z,223.00
2023-03-23T06:48:53.179Z,359.00
2023-03-23T06:49:52.517Z,556.00
2023-03-23T06:50:52.491Z,579.00
2023-03-23T06:51:52.471Z,523.00
2023-03-23T06:52:52.454Z,456.00
2023-03-23T06:53:52.722Z,400.00
2023-03-23T06:54:52.566Z,380.00
2023-03-23T06:55:52.465Z,366.00
2023-03-23T06:56:52.426Z,362.00
2023-03-23T06:57:52.406Z,396.00
2023-03-23T06:58:55.199Z,442.00
2023-03-23T06:59:52.424Z,466.00
2023-03-23T07:00:53.138Z,492.00
2023-03-23T07:01:52.401Z,517.00
2023-03-23T07:02:52.717Z,497.00
2023-03-23T07:03:53.198Z,498.00
2023-03-23T07:04:52.302Z,543.00
2023-03-23T07:05:52.313Z,679.00
2023-03-23T07:06:52.435Z,663.00
2023-03-23T07:07:52.314Z,610.00
2023-03-23T07:08:52.385Z,621.00
2023-03-23T07:09:52.314Z,616.00
2023-03-23T07:10:52.274Z,660.00
2023-03-23T07:11:52.236Z,667.00
2023-03-23T07:12:52.241Z,663.00
2023-03-23T07:13:52.214Z,583.00
2023-03-23T07:14:52.284Z,540.00
2023-03-23T07:15:53.084Z,515.00
2023-03-23T07:16:52.194Z,523.00
2023-03-23T07:17:52.286Z,548.00
2023-03-23T07:18:52.291Z,529.00
2023-03-23T07:19:52.202Z,434.00
2023-03-23T07:20:52.167Z,391.00
2023-03-23T07:21:52.197Z,367.00
2023-03-23T07:22:52.113Z,404.00
2023-03-23T07:23:52.180Z,399.00
2023-03-23T07:24:52.168Z,376.00
2023-03-23T07:25:52.166Z,406.00
2023-03-23T07:26:52.378Z,493.00
2023-03-23T07:27:52.140Z,517.00
2023-03-23T07:28:52.065Z,509.00
2023-03-23T07:29:52.121Z,599.00
2023-03-23T07:30:52.108Z,601.00
2023-03-23T07:31:52.070Z,569.00
2023-03-23T07:32:52.058Z,597.00
2023-03-23T07:33:51.996Z,757.00
2023-03-23T07:34:52.030Z,950.00
2023-03-23T07:35:52.094Z,1028.00
2023-03-23T07:36:52.020Z,1083.00
2023-03-23T07:37:52.069Z,1127.00
2023-03-23T07:38:52.084Z,1124.00
2023-03-23T07:39:51.963Z,1116.00
2023-03-23T07:40:52.709Z,1040.00
2023-03-23T07:41:51.933Z,1061.00
2023-03-23T07:42:52.126Z,1043.00
2023-03-23T07:43:51.996Z,1099.00
2023-03-23T07:44:51.944Z,1152.00
2023-03-23T07:45:51.887Z,1210.00
2023-03-23T07:46:52.804Z,1241.00
2023-03-23T07:47:51.885Z,1221.00
2023-03-23T07:48:52.287Z,1213.00
2023-03-23T07:49:51.932Z,1203.00
2023-03-23T07:50:51.909Z,1179.00
2023-03-23T07:51:52.394Z,1175.00
2023-03-23T07:52:51.850Z,1051.00
2023-03-23T07:53:51.894Z,901.00
2023-03-23T07:54:51.813Z,959.00
2023-03-23T07:55:51.792Z,918.00
2023-03-23T07:56:52.754Z,987.00
2023-03-23T07:57:51.797Z,980.00
2023-03-23T07:58:51.793Z,892.00
2023-03-23T07:59:52.148Z,980.00
2023-03-23T08:00:51.751Z,1146.00
2023-03-23T08:01:51.743Z,1027.00
2023-03-23T08:02:52.470Z,1117.00
2023-03-23T08:03:51.874Z,1063.00
2023-03-23T08:04:51.741Z,1163.00
2023-03-23T08:05:51.944Z,1137.00
2023-03-23T08:06:51.697Z,1004.00
2023-03-23T08:07:51.673Z,1030.00
2023-03-23T08:08:51.741Z,1079.00
2023-03-23T08:09:51.642Z,1068.00
2023-03-23T08:10:51.669Z,1077.00
2023-03-23T08:11:51.614Z,1040.00
2023-03-23T08:12:51.701Z,1018.00
2023-03-23T08:13:51.670Z,1027.00
2023-03-23T08:14:51.584Z,970.00
2023-03-23T08:15:51.566Z,917.00
2023-03-23T08:16:51.656Z,868.00
2023-03-23T08:17:51.574Z,875.00
2023-03-23T08:18:51.623Z,938.00
2023-03-23T08:19:51.566Z,987.00
2023-03-23T08:20:53.219Z,1011.00
2023-03-23T08:21:51.514Z,1056.00
2023-03-23T08:22:53.482Z,1107.00
2023-03-23T08:23:51.754Z,1175.00
2023-03-23T08:24:51.512Z,1205.00
2023-03-23T08:25:52.570Z,1163.00
2023-03-23T08:26:51.521Z,1139.00
2023-03-23T08:27:51.461Z,1180.00
2023-03-23T08:28:51.435Z,1181.00
2023-03-23T08:29:51.454Z,1145.00
2023-03-23T08:30:51.551Z,1088.00
2023-03-23T08:31:51.647Z,849.00
2023-03-23T08:32:51.432Z,824.00
2023-03-23T08:33:51.402Z,685.00
2023-03-23T08:34:51.428Z,896.00
2023-03-23T08:35:51.417Z,1223.00
2023-03-23T08:36:51.392Z,1262.00
2023-03-23T08:37:51.404Z,1213.00
2023-03-23T08:38:51.340Z,1470.00
2023-03-23T08:39:51.389Z,1589.00
2023-03-23T08:40:51.316Z,1598.00
2023-03-23T08:41:51.314Z,1596.00
2023-03-23T08:42:55.802Z,1624.00
2023-03-23T08:43:51.328Z,1695.00
2023-03-23T08:44:51.319Z,1752.00
2023-03-23T08:45:51.402Z,1833.00
2023-03-23T08:46:51.287Z,1944.00
2023-03-23T08:47:51.337Z,2105.00
2023-03-23T08:48:51.233Z,2227.00
2023-03-23T08:49:51.356Z,2257.00
2023-03-23T08:50:52.100Z,2211.00
2023-03-23T08:51:52.209Z,2181.00
2023-03-23T08:52:51.300Z,2231.00
2023-03-23T08:53:51.223Z,2180.00
2023-03-23T08:54:51.168Z,2131.00
2023-03-23T08:55:51.182Z,2069.00
2023-03-23T08:56:51.223Z,2055.00
2023-03-23T08:57:51.988Z,2031.00
2023-03-23T08:58:52.127Z,2031.00
2023-03-23T08:59:51.145Z,2053.00
2023-03-23T09:00:51.322Z,2092.00
2023-03-23T09:01:51.146Z,2126.00
2023-03-23T09:02:51.128Z,2218.00
2023-03-23T09:03:51.075Z,2186.00
2023-03-23T09:04:51.088Z,2126.00
2023-03-23T09:05:51.131Z,2119.00
2023-03-23T09:06:51.228Z,2249.00
2023-03-23T09:07:51.127Z,2241.00
2023-03-23T09:08:51.064Z,2339.00
2023-03-23T09:09:51.036Z,2301.00
2023-03-23T09:10:51.051Z,2371.00
2023-03-23T09:11:51.043Z,2402.00
2023-03-23T09:12:51.016Z,2350.00
2023-03-23T09:13:51.030Z,2424.00
2023-03-23T09:14:51.001Z,2459.00
2023-03-23T09:15:55.391Z,2446.00
2023-03-23T09:16:51.066Z,2493.00
2023-03-23T09:17:50.935Z,2553.00
2023-03-23T09:18:50.943Z,2479.00
2023-03-23T09:19:50.911Z,2752.00
2023-03-23T09:20:50.946Z,2781.00
2023-03-23T09:21:51.000Z,2899.00
2023-03-23T09:22:50.963Z,2834.00
2023-03-23T09:23:50.900Z,2691.00
2023-03-23T09:24:50.874Z,2622.00
2023-03-23T09:25:50.924Z,2596.00
2023-03-23T09:26:50.886Z,2774.00
2023-03-23T09:27:50.824Z,2963.00
2023-03-23T09:28:50.835Z,2719.00
2023-03-23T09:29:50.934Z,2768.00
2023-03-23T09:30:53.434Z,2708.00
2023-03-23T09:31:50.826Z,2242.00
2023-03-23T09:32:50.917Z,2088.00
2023-03-23T09:33:50.796Z,2137.00
2023-03-23T09:34:50.809Z,2154.00
2023-03-23T09:35:50.763Z,2290.00
2023-03-23T09:36:51.477Z,2717.00
2023-03-23T09:37:50.779Z,2712.00
2023-03-23T09:38:50.734Z,2696.00
2023-03-23T09:39:50.742Z,2811.00
2023-03-23T09:40:50.802Z,2833.00
2023-03-23T09:41:50.749Z,2948.00
2023-03-23T09:42:51.831Z,2804.00
2023-03-23T09:43:50.777Z,2215.00
2023-03-23T09:44:50.665Z,1973.00
2023-03-23T09:45:51.122Z,1855.00
2023-03-23T09:46:50.634Z,1829.00
2023-03-23T09:47:50.652Z,1839.00
2023-03-23T09:48:50.669Z,1824.00
2023-03-23T09:49:50.596Z,1887.00
2023-03-23T09:50:50.589Z,1937.00
2023-03-23T09:51:50.658Z,1898.00
2023-03-23T09:52:50.619Z,1997.00
2023-03-23T09:53:50.671Z,2049.00
2023-03-23T09:54:50.573Z,2049.00
2023-03-23T09:55:51.176Z,2021.00
2023-03-23T09:56:50.544Z,2079.00
2023-03-23T09:57:51.481Z,2165.00
2023-03-23T09:58:50.752Z,2220.00
2023-03-23T09:59:50.502Z,2156.00
2023-03-23T10:00:51.137Z,2064.00
2023-03-23T10:01:50.475Z,2130.00
2023-03-23T10:02:50.479Z,2184.00
2023-03-23T10:03:50.473Z,2294.00
2023-03-23T10:04:50.466Z,2290.00
2023-03-23T10:05:50.534Z,2072.00
2023-03-23T10:06:50.447Z,2093.00
2023-03-23T10:07:50.417Z,1866.00
2023-03-23T10:08:57.147Z,1631.00
2023-03-23T10:09:50.392Z,1701.00
2023-03-23T10:10:50.457Z,1948.00
2023-03-23T10:11:50.375Z,2089.00
2023-03-23T10:12:50.377Z,2110.00
2023-03-23T10:13:50.355Z,2152.00
2023-03-23T10:14:50.391Z,2230.00
2023-03-23T10:15:50.325Z,2323.00
2023-03-23T10:16:50.366Z,2413.00
2023-03-23T10:17:50.370Z,2186.00
2023-03-23T10:18:50.452Z,1762.00
2023-03-23T10:19:50.338Z,1549.00
2023-03-23T10:20:50.339Z,1570.00
2023-03-23T10:21:50.350Z,1550.00
2023-03-23T10:22:50.274Z,1512.00
2023-03-23T10:23:50.335Z,1470.00
2023-03-23T10:24:50.286Z,1707.00
2023-03-23T10:25:50.265Z,1941.00
2023-03-23T10:26:50.229Z,2146.00
2023-03-23T10:27:50.221Z,2286.00
2023-03-23T10:28:50.216Z,2342.00
2023-03-23T10:29:50.205Z,2526.00
2023-03-23T10:30:50.216Z,2451.00
2023-03-23T10:31:50.245Z,2358.00
2023-03-23T10:32:50.225Z,2241.00
2023-03-23T10:33:50.230Z,1793.00
2023-03-23T10:34:51.203Z,1650.00
2023-03-23T10:35:50.199Z,1805.00
2023-03-23T10:36:50.404Z,2047.00
2023-03-23T10:37:50.144Z,2305.00
2023-03-23T10:38:50.110Z,2682.00
2023-03-23T10:39:50.078Z,2700.00
2023-03-23T10:40:50.080Z,2525.00
2023-03-23T10:41:50.066Z,2338.00
2023-03-23T10:42:50.073Z,1955.00
2023-03-23T10:43:50.146Z,1807.00
2023-03-23T10:44:50.025Z,1560.00
2023-03-23T10:45:58.447Z,1855.00
2023-03-23T10:46:50.066Z,1875.00
2023-03-23T10:47:50.061Z,1526.00
2023-03-23T10:48:49.998Z,1471.00
2023-03-23T10:49:50.135Z,1181.00
2023-03-23T10:50:49.964Z,991.00
2023-03-23T10:51:49.991Z,1453.00
2023-03-23T10:52:50.004Z,1632.00
2023-03-23T10:53:49.982Z,1834.00
2023-03-23T10:54:49.961Z,1726.00
2023-03-23T10:55:49.936Z,1468.00
2023-03-23T10:56:59.646Z,1178.00
2023-03-23T10:57:49.915Z,710.00
2023-03-23T10:58:49.932Z,516.00
2023-03-23T10:59:49.909Z,1180.00
2023-03-23T11:00:49.900Z,1704.00
2023-03-23T11:01:49.842Z,2563.00
2023-03-23T11:02:49.837Z,3080.00
2023-03-23T11:03:49.857Z,3342.00
2023-03-23T11:04:49.802Z,3527.00
2023-03-23T11:05:49.827Z,3445.00
2023-03-23T11:06:49.812Z,4011.00
2023-03-23T11:07:49.825Z,3608.00
2023-03-23T11:08:49.792Z,3332.00
2023-03-23T11:09:50.404Z,3153.00
2023-03-23T11:10:49.790Z,2682.00
2023-03-23T11:11:49.751Z,3826.00
2023-03-23T11:12:49.747Z,3777.00
2023-03-23T11:13:49.783Z,3440.00
2023-03-23T11:14:49.739Z,3072.00
2023-03-23T11:15:50.723Z,2700.00
2023-03-23T11:16:49.720Z,2624.00
2023-03-23T11:17:49.724Z,2584.00
2023-03-23T11:18:49.672Z,2403.00
2023-03-23T11:19:49.663Z,2384.00
2023-03-23T11:20:49.649Z,2585.00
2023-03-23T11:21:49.663Z,2591.00
2023-03-23T11:22:49.644Z,2640.00
2023-03-23T11:23:53.309Z,2667.00
2023-03-23T11:24:49.651Z,2700.00
2023-03-23T11:25:49.738Z,2770.00
2023-03-23T11:26:56.910Z,2627.00
2023-03-23T11:27:49.656Z,2592.00
2023-03-23T11:28:49.633Z,2334.00
2023-03-23T11:29:55.080Z,2327.00
2023-03-23T11:30:49.638Z,2435.00
2023-03-23T11:31:49.687Z,2583.00
2023-03-23T11:32:50.019Z,2587.00
2023-03-23T11:33:54.607Z,2525.00
2023-03-23T11:34:49.591Z,2530.00
2023-03-23T11:35:49.639Z,2547.00
2023-03-23T11:36:49.542Z,2575.00
2023-03-23T11:37:49.475Z,2283.00
2023-03-23T11:38:49.448Z,1899.00
2023-03-23T11:39:49.487Z,1485.00
2023-03-23T11:40:49.467Z,1720.00
2023-03-23T11:41:55.279Z,2201.00
2023-03-23T11:42:49.412Z,2245.00
2023-03-23T11:43:49.526Z,2051.00
2023-03-23T11:44:49.377Z,2081.00
2023-03-23T11:45:50.198Z,1876.00
2023-03-23T11:46:49.396Z,1640.00
2023-03-23T11:47:49.409Z,1456.00
2023-03-23T11:48:49.685Z,1319.00
2023-03-23T11:49:49.350Z,1293.00
2023-03-23T11:50:49.330Z,1176.00
2023-03-23T11:51:49.430Z,1111.00
2023-03-23T11:52:49.416Z,1109.00
2023-03-23T11:53:49.405Z,1046.00
2023-03-23T11:54:49.681Z,977.00
2023-03-23T11:55:49.309Z,924.00
2023-03-23T11:56:51.767Z,949.00
2023-03-23T11:57:49.364Z,1047.00
2023-03-23T11:58:49.693Z,1138.00
2023-03-23T11:59:49.257Z,1185.00
2023-03-23T12:00:49.530Z,1269.00
2023-03-23T12:01:49.659Z,1450.00
2023-03-23T12:02:49.225Z,1683.00
2023-03-23T12:03:49.304Z,1777.00
2023-03-23T12:04:49.160Z,1876.00
2023-03-23T12:05:49.217Z,2078.00
2023-03-23T12:06:49.200Z,2003.00
2023-03-23T12:07:49.152Z,1883.00
2023-03-23T12:08:49.205Z,2000.00
2023-03-23T12:09:49.133Z,2299.00
2023-03-23T12:11:49.153Z,2093.00
2023-03-23T12:12:49.132Z,1955.00
2023-03-23T12:13:53.128Z,1789.00
2023-03-23T12:14:49.135Z,2063.00
2023-03-23T12:15:49.106Z,2586.00
2023-03-23T12:16:49.101Z,2696.00
2023-03-23T12:17:49.064Z,2682.00
2023-03-23T12:18:49.046Z,2696.00
2023-03-23T12:19:49.066Z,2634.00
2023-03-23T12:20:49.073Z,2640.00
2023-03-23T12:21:49.023Z,2512.00
2023-03-23T12:22:49.045Z,2204.00
2023-03-23T12:23:48.989Z,1663.00
2023-03-23T12:24:49.046Z,1821.00
2023-03-23T12:25:49.031Z,2142.00
2023-03-23T12:26:48.962Z,2415.00
2023-03-23T12:27:48.942Z,2797.00
2023-03-23T12:28:48.959Z,2272.00
2023-03-23T12:29:48.994Z,2927.00
2023-03-23T12:30:48.980Z,3673.00
2023-03-23T12:31:48.975Z,2318.00
2023-03-23T12:32:48.898Z,3041.00
2023-03-23T12:33:48.938Z,2787.00
2023-03-23T12:34:48.855Z,3086.00
2023-03-23T12:35:48.866Z,3552.00
2023-03-23T12:36:49.011Z,3022.00
2023-03-23T12:37:48.841Z,2984.00
2023-03-23T12:38:49.015Z,2888.00
2023-03-23T12:39:48.855Z,2783.00
2023-03-23T12:40:48.795Z,2663.00
2023-03-23T12:41:48.856Z,2512.00
2023-03-23T12:42:48.858Z,2429.00